Terminal Aerodrome Forecast
Issued by NWS Topeka, KS

Home | Current Version | Previous Version | Text Only | Print | Product List | Glossary On
Versions: 1 2 3 4 5 6 7 8 9 10 11 12 13 14 15 16 17 18 19
662
FTUS43 KTOP 211120
TAFTOP
TAF
KTOP 211120Z 2112/2212 27007KT P6SM SKC
     FM211900 29011KT P6SM FEW250
     FM220000 29006KT P6SM FEW250
     FM221100 22004KT P6SM BKN080=

USA.gov is the U.S. government's official web portal to all federal, state and local government web resources and services.